Time;durP1;ratioP1;P1;durP2;ratioP2;P2;SDS_P1;SDS_P2;PMS_P1;PMS_P2;Temp;Humidity;BMP_temperature;BMP_pressure;BME280_temperature;BME280_humidity;BME280_pressure;Samples;Min_cycle;Max_cycle;Signal;HPM_P1;HPM_P2
2023/03/16 00:01:17;;;;;;;11.15;2.88;;;4.70;99.90;;;;;;6259987;22;20050;-94
2023/03/16 00:03:43;;;;;;;6.97;2.50;;;4.70;99.90;;;;;;6257295;22;20057;-95
2023/03/16 00:06:08;;;;;;;7.90;2.78;;;4.70;99.90;;;;;;6259594;22;20023;-95
2023/03/16 00:08:34;;;;;;;7.72;2.47;;;4.70;99.90;;;;;;6254063;22;20091;-95
2023/03/16 00:11:01;;;;;;;8.68;2.65;;;4.70;99.90;;;;;;6280889;22;20020;-95
2023/03/16 00:13:27;;;;;;;8.20;2.92;;;4.70;99.90;;;;;;6281361;22;20015;-95
2023/03/16 00:16:04;;;;;;;7.18;2.60;;;4.70;99.90;;;;;;6281925;22;20015;-94
2023/03/16 00:18:37;;;;;;;8.57;2.55;;;4.80;99.90;;;;;;6253843;22;20042;-94
2023/03/16 00:21:04;;;;;;;10.88;3.33;;;4.70;99.90;;;;;;6252337;22;20440;-94
2023/03/16 00:23:34;;;;;;;10.70;2.47;;;4.70;99.90;;;;;;6251752;22;20028;-93
2023/03/16 00:26:02;;;;;;;8.38;2.75;;;4.70;99.90;;;;;;6251847;22;20023;-94
2023/03/16 00:28:33;;;;;;;8.70;2.70;;;4.70;99.90;;;;;;6251477;22;20023;-93
2023/03/16 00:31:00;;;;;;;8.15;2.95;;;4.70;99.90;;;;;;6279256;22;20015;-93
2023/03/16 00:33:26;;;;;;;7.90;2.65;;;4.70;99.90;;;;;;6251187;22;20034;-94
2023/03/16 00:36:00;;;;;;;7.88;2.72;;;4.70;99.90;;;;;;6278818;22;20073;-94
2023/03/16 00:38:28;;;;;;;9.45;3.30;;;4.70;99.90;;;;;;6278272;22;20054;-93
2023/03/16 00:40:55;;;;;;;10.13;3.10;;;4.70;99.90;;;;;;6251674;22;20016;-94
2023/03/16 00:43:20;;;;;;;7.13;2.63;;;4.70;99.90;;;;;;6278489;22;20082;-94
2023/03/16 00:45:46;;;;;;;5.93;2.33;;;4.60;99.90;;;;;;6251635;22;20043;-93
2023/03/16 00:48:12;;;;;;;8.38;2.90;;;4.60;99.90;;;;;;6251352;22;20012;-94
2023/03/16 00:50:38;;;;;;;10.68;2.90;;;4.60;99.90;;;;;;6251203;22;20622;-94
2023/03/16 00:53:05;;;;;;;7.97;2.70;;;4.60;99.90;;;;;;6251309;22;20341;-93
2023/03/16 00:55:31;;;;;;;9.70;2.80;;;4.60;99.90;;;;;;6250838;22;20023;-94
2023/03/16 00:57:56;;;;;;;6.68;2.40;;;4.60;99.90;;;;;;6251646;22;20095;-92
2023/03/16 01:00:26;;;;;;;7.57;2.70;;;4.60;99.90;;;;;;6251547;22;20070;-93
2023/03/16 01:02:52;;;;;;;8.35;3.17;;;4.60;99.90;;;;;;6251692;22;20012;-93
2023/03/16 01:05:18;;;;;;;10.40;2.70;;;4.60;99.90;;;;;;6250964;22;20015;-94
2023/03/16 01:07:44;;;;;;;6.03;2.40;;;4.60;99.90;;;;;;6252016;22;20016;-94
2023/03/16 01:10:10;;;;;;;8.65;2.97;;;4.60;99.90;;;;;;6252938;22;20011;-95
2023/03/16 01:12:35;;;;;;;7.72;2.53;;;4.60;99.90;;;;;;6252038;22;20043;-94
2023/03/16 01:15:01;;;;;;;10.32;2.92;;;4.60;99.90;;;;;;6251680;22;20019;-93
2023/03/16 01:17:27;;;;;;;8.30;2.83;;;4.60;99.90;;;;;;6251322;22;20142;-94
2023/03/16 01:19:53;;;;;;;7.22;3.20;;;4.50;99.90;;;;;;6277112;22;20023;-94
2023/03/16 01:22:19;;;;;;;6.32;2.70;;;4.50;99.90;;;;;;6251297;22;20432;-94
2023/03/16 01:24:45;;;;;;;9.43;3.38;;;4.50;99.90;;;;;;6278602;22;20007;-94
2023/03/16 01:27:11;;;;;;;7.35;2.70;;;4.60;99.90;;;;;;6278487;22;20359;-94
2023/03/16 01:29:38;;;;;;;6.85;3.00;;;4.50;99.90;;;;;;6251162;22;20344;-95
2023/03/16 01:32:05;;;;;;;7.82;2.97;;;4.50;99.90;;;;;;6251812;22;20161;-94
2023/03/16 01:34:32;;;;;;;8.93;3.00;;;4.50;99.90;;;;;;6278427;22;20011;-94
2023/03/16 01:36:59;;;;;;;8.80;3.20;;;4.50;99.90;;;;;;6251767;22;20019;-95
2023/03/16 01:39:25;;;;;;;7.88;2.42;;;4.50;99.90;;;;;;6278460;22;20016;-94
2023/03/16 01:41:51;;;;;;;9.07;3.42;;;4.50;99.90;;;;;;6278425;22;20016;-93
2023/03/16 01:44:21;;;;;;;6.25;2.85;;;4.40;99.90;;;;;;6251190;22;20008;-94
2023/03/16 01:46:47;;;;;;;10.50;3.25;;;4.40;99.90;;;;;;6251337;22;20023;-94
2023/03/16 01:49:25;;;;;;;6.07;2.60;;;4.40;99.90;;;;;;6277963;22;20016;-95
2023/03/16 01:52:13;;;;;;;6.93;3.00;;;4.40;99.90;;;;;;6251605;22;20016;-94
2023/03/16 01:54:42;;;;;;;8.70;3.03;;;4.40;99.90;;;;;;6239472;22;20061;-94
2023/03/16 01:57:19;;;;;;;9.82;2.92;;;4.30;99.90;;;;;;6251235;22;20020;-93
2023/03/16 01:59:56;;;;;;;10.90;3.47;;;4.30;99.90;;;;;;6251636;22;20375;-94
2023/03/16 02:02:25;;;;;;;8.95;2.85;;;4.30;99.90;;;;;;6251627;22;20020;-94
2023/03/16 02:04:51;;;;;;;9.15;3.20;;;4.30;99.90;;;;;;6251698;22;20073;-95
2023/03/16 02:07:21;;;;;;;9.93;3.45;;;4.20;99.90;;;;;;6279790;22;20071;-95
2023/03/16 02:09:50;;;;;;;8.07;3.35;;;4.20;99.90;;;;;;6281343;22;20007;-95
2023/03/16 02:12:17;;;;;;;7.53;3.08;;;4.20;99.90;;;;;;6253862;22;20023;-94
2023/03/16 02:14:45;;;;;;;11.02;3.10;;;4.20;99.90;;;;;;6253545;22;20043;-95
2023/03/16 02:17:13;;;;;;;13.43;3.75;;;4.20;99.90;;;;;;6279930;22;20103;-94
2023/03/16 02:20:10;;;;;;;8.80;3.50;;;4.20;99.90;;;;;;6254121;22;20051;-95
2023/03/16 02:22:44;;;;;;;9.95;3.33;;;4.20;99.90;;;;;;6281701;22;20348;-95
2023/03/16 02:25:10;;;;;;;;;;;4.10;99.90;;;;;;6254008;22;20470;-96
2023/03/16 02:27:55;;;;;;;7.60;3.42;;;4.10;99.20;;;;;;6254125;22;19915;-94
2023/03/16 02:30:21;;;;;;;9.00;3.70;;;4.10;99.90;;;;;;6254431;22;20045;-94
2023/03/16 02:32:50;;;;;;;11.75;3.83;;;4.00;99.90;;;;;;6281163;22;20015;-94
2023/03/16 02:35:16;;;;;;;9.77;3.83;;;4.10;99.90;;;;;;6280805;22;20008;-94
2023/03/16 02:37:42;;;;;;;10.02;3.63;;;4.00;99.90;;;;;;6253408;22;20026;-94
2023/03/16 02:40:34;;;;;;;8.90;4.10;;;4.10;99.90;;;;;;6280355;22;20375;-95
2023/03/16 02:43:03;;;;;;;9.45;4.30;;;4.10;99.90;;;;;;6247982;22;20078;-95
2023/03/16 02:45:44;;;;;;;9.05;4.20;;;4.10;99.90;;;;;;6253135;22;20020;-94
2023/03/16 02:48:17;;;;;;;11.23;3.92;;;4.10;99.90;;;;;;6253350;22;20023;-95
2023/03/16 02:50:50;;;;;;;7.70;3.65;;;4.10;99.90;;;;;;6253987;22;20440;-95
2023/03/16 02:53:16;;;;;;;7.95;3.88;;;4.10;99.90;;;;;;6253154;22;20016;-95
2023/03/16 02:55:43;;;;;;;8.15;3.80;;;4.10;99.90;;;;;;6253539;22;20015;-95
2023/03/16 02:58:10;;;;;;;12.13;4.15;;;4.10;99.90;;;;;;6280830;22;20011;-95
2023/03/16 03:00:37;;;;;;;13.52;4.50;;;4.10;99.90;;;;;;6253221;22;20061;-95
2023/03/16 03:03:03;;;;;;;7.38;3.72;;;4.20;99.90;;;;;;6253221;22;20063;-93
2023/03/16 03:05:29;;;;;;;10.93;3.92;;;4.20;99.90;;;;;;6279741;22;20016;-95
2023/03/16 03:07:55;;;;;;;9.27;3.75;;;4.20;99.90;;;;;;6252718;22;20339;-94
2023/03/16 03:10:21;;;;;;;9.73;3.88;;;4.20;99.90;;;;;;6252589;22;20016;-95
2023/03/16 03:12:48;;;;;;;7.53;3.90;;;4.20;99.90;;;;;;6252882;22;20061;-94
2023/03/16 03:15:15;;;;;;;6.85;3.58;;;4.10;99.90;;;;;;6279576;22;20008;-95
2023/03/16 03:17:41;;;;;;;10.57;3.90;;;4.20;99.90;;;;;;6252668;22;20019;-94
2023/03/16 03:20:15;;;;;;;8.45;3.78;;;4.20;99.90;;;;;;6279964;22;20015;-94
2023/03/16 03:22:45;;;;;;;9.68;4.25;;;4.20;99.90;;;;;;6280017;22;20011;-94
2023/03/16 03:25:13;;;;;;;9.00;3.80;;;4.20;99.90;;;;;;6252938;22;20016;-95
2023/03/16 03:27:41;;;;;;;11.23;3.85;;;4.20;99.90;;;;;;6252755;22;20391;-94
2023/03/16 03:30:12;;;;;;;8.52;3.70;;;4.20;99.90;;;;;;6253135;22;20018;-93
2023/03/16 03:32:39;;;;;;;7.97;4.05;;;4.20;99.90;;;;;;6281203;22;20020;-95
2023/03/16 03:35:05;;;;;;;7.38;3.65;;;4.20;99.90;;;;;;6280959;22;20436;-94
2023/03/16 03:37:31;;;;;;;12.35;4.10;;;4.20;99.90;;;;;;6254611;22;20023;-94
2023/03/16 03:39:56;;;;;;;9.73;4.50;;;4.20;99.90;;;;;;6256176;22;20012;-94
2023/03/16 03:42:24;;;;;;;8.10;3.80;;;4.30;99.90;;;;;;6255556;22;20383;-93
2023/03/16 03:44:51;;;;;;;9.55;3.78;;;4.30;99.90;;;;;;6279813;22;20019;-94
2023/03/16 03:47:18;;;;;;;10.95;3.92;;;4.30;99.90;;;;;;6252745;22;20054;-94
2023/03/16 03:49:44;;;;;;;10.68;3.65;;;4.30;99.90;;;;;;6279964;22;20142;-94
2023/03/16 03:52:10;;;;;;;13.48;3.95;;;4.30;99.90;;;;;;6253322;22;20015;-96
2023/03/16 03:54:36;;;;;;;11.20;3.67;;;4.20;99.80;;;;;;6280470;22;20026;-95
2023/03/16 03:57:02;;;;;;;8.05;3.45;;;4.30;99.50;;;;;;6253360;22;20016;-95
2023/03/16 03:59:27;;;;;;;8.15;3.60;;;4.30;99.30;;;;;;6279633;22;20520;-94
2023/03/16 04:01:53;;;;;;;9.93;3.90;;;4.30;99.40;;;;;;6280089;22;20037;-95
2023/03/16 04:04:19;;;;;;;7.60;3.72;;;4.30;99.40;;;;;;6253431;22;20015;-93
2023/03/16 04:06:45;;;;;;;10.15;3.85;;;4.30;99.40;;;;;;6252878;22;20019;-94
2023/03/16 04:09:11;;;;;;;9.38;3.53;;;4.30;99.50;;;;;;6252430;22;20012;-94
2023/03/16 04:11:37;;;;;;;10.77;4.03;;;4.30;99.60;;;;;;6252571;22;20027;-94
2023/03/16 04:14:03;;;;;;;9.88;3.75;;;4.30;99.50;;;;;;6252720;22;20090;-94
2023/03/16 04:16:29;;;;;;;7.47;3.45;;;4.30;99.50;;;;;;6251761;22;20054;-93
2023/03/16 04:18:55;;;;;;;9.18;3.72;;;4.30;99.40;;;;;;6282000;22;20019;-95
2023/03/16 04:21:22;;;;;;;7.63;3.40;;;4.30;99.40;;;;;;6283741;22;20007;-95
2023/03/16 04:23:48;;;;;;;9.77;3.60;;;4.30;99.40;;;;;;6283329;22;20008;-95
2023/03/16 04:26:15;;;;;;;10.02;3.40;;;4.30;99.20;;;;;;6283813;22;20012;-94
2023/03/16 04:28:42;;;;;;;7.68;3.20;;;4.30;99.00;;;;;;6257160;22;20094;-95
2023/03/16 04:31:09;;;;;;;9.02;3.55;;;4.40;99.00;;;;;;6255117;22;20026;-95
2023/03/16 04:33:36;;;;;;;9.07;3.70;;;4.30;98.80;;;;;;6280573;22;20004;-94
2023/03/16 04:36:03;;;;;;;7.93;3.40;;;4.40;98.80;;;;;;6254032;22;20321;-95
2023/03/16 04:38:32;;;;;;;7.75;3.30;;;4.30;98.90;;;;;;6283076;22;20172;-95
2023/03/16 04:40:58;;;;;;;8.70;3.55;;;4.40;99.00;;;;;;6284243;22;20016;-96
2023/03/16 04:43:24;;;;;;;10.40;3.60;;;4.40;98.80;;;;;;6251953;22;20011;-94
2023/03/16 04:45:50;;;;;;;9.50;3.50;;;4.40;98.80;;;;;;6279359;22;20090;-94
2023/03/16 04:48:16;;;;;;;8.55;3.40;;;4.40;98.60;;;;;;6252038;22;20016;-94
2023/03/16 04:50:41;;;;;;;6.97;3.33;;;4.40;98.50;;;;;;6279359;22;20028;-93
2023/03/16 04:53:07;;;;;;;6.43;3.15;;;4.40;98.40;;;;;;6252162;22;20015;-94
2023/03/16 04:55:33;;;;;;;7.18;3.50;;;4.40;98.30;;;;;;6251625;22;20018;-94
2023/03/16 04:57:59;;;;;;;6.95;3.47;;;4.40;98.30;;;;;;6252515;22;20101;-94
2023/03/16 05:00:24;;;;;;;9.43;3.22;;;4.40;98.50;;;;;;6251382;22;20019;-94
2023/03/16 05:02:50;;;;;;;6.72;3.20;;;4.40;98.50;;;;;;6278333;22;20016;-94
2023/03/16 05:05:16;;;;;;;7.03;3.13;;;4.40;98.60;;;;;;6251914;22;20008;-94
2023/03/16 05:07:43;;;;;;;7.60;4.05;;;4.40;98.70;;;;;;6278330;22;20019;-94
2023/03/16 05:10:12;;;;;;;6.63;3.67;;;4.40;98.80;;;;;;6278890;22;20019;-93
2023/03/16 05:12:39;;;;;;;8.15;3.50;;;4.40;99.00;;;;;;6251723;22;20470;-94
2023/03/16 05:15:05;;;;;;;7.97;3.42;;;4.40;99.50;;;;;;6251836;22;20008;-93
2023/03/16 05:17:31;;;;;;;9.10;4.00;;;4.40;99.20;;;;;;6277517;22;20103;-93
2023/03/16 05:19:57;;;;;;;8.30;3.80;;;4.40;99.20;;;;;;6250454;22;20024;-92
2023/03/16 05:22:23;;;;;;;9.63;3.83;;;4.40;99.30;;;;;;6278089;22;20016;-94
2023/03/16 05:24:48;;;;;;;7.90;3.50;;;4.50;99.50;;;;;;6251185;22;20019;-94
2023/03/16 05:27:14;;;;;;;8.98;4.20;;;4.50;99.50;;;;;;6250714;22;20011;-94
2023/03/16 05:29:44;;;;;;;9.48;4.22;;;4.50;99.50;;;;;;6251824;22;20011;-94
2023/03/16 05:32:10;;;;;;;7.43;3.38;;;4.50;99.70;;;;;;6251636;22;20018;-94
2023/03/16 05:34:36;;;;;;;9.20;3.50;;;4.50;99.60;;;;;;6278871;22;20011;-94
2023/03/16 05:37:02;;;;;;;9.23;3.78;;;4.50;99.60;;;;;;6279656;22;20012;-95
2023/03/16 05:39:29;;;;;;;10.25;3.67;;;4.50;99.60;;;;;;6254874;22;20023;-96
2023/03/16 05:41:56;;;;;;;8.57;3.55;;;4.50;99.70;;;;;;6260508;22;20023;-95
2023/03/16 05:44:22;;;;;;;9.27;3.65;;;4.50;99.60;;;;;;6284946;22;20015;-95
2023/03/16 05:46:48;;;;;;;7.57;3.97;;;4.50;99.60;;;;;;6263311;22;20015;-95
2023/03/16 05:49:14;;;;;;;12.00;3.80;;;4.50;99.30;;;;;;6260174;22;20051;-96
2023/03/16 05:51:40;;;;;;;7.70;4.25;;;4.50;99.40;;;;;;6255221;22;20026;-96
2023/03/16 05:54:19;;;;;;;;;;;;;;;;;;;;;
2023/03/16 05:57:15;;;;;;;9.30;4.00;;;4.50;99.60;;;;;;6245460;22;20015;-93
2023/03/16 06:00:12;;;;;;;7.75;3.80;;;4.50;99.50;;;;;;6249465;22;20043;-93
2023/03/16 06:02:51;;;;;;;8.07;3.70;;;4.50;99.30;;;;;;6250567;22;20016;-93
2023/03/16 06:05:20;;;;;;;10.00;4.15;;;4.50;99.50;;;;;;6252608;22;20107;-93
2023/03/16 06:07:50;;;;;;;10.63;4.45;;;4.50;99.60;;;;;;6253555;22;20020;-95
2023/03/16 06:10:21;;;;;;;11.13;4.40;;;4.50;99.40;;;;;;6253805;22;20073;-96
2023/03/16 06:13:09;;;;;;;8.40;4.40;;;4.50;99.30;;;;;;6263775;22;20026;-95
2023/03/16 06:15:50;;;;;;;;;;;;;;;;;;;;;
2023/03/16 06:18:35;;;;;;;8.05;3.90;;;4.50;99.40;;;;;;6274756;22;20365;-96
2023/03/16 06:21:11;;;;;;;7.68;3.90;;;4.50;99.30;;;;;;6294204;22;20020;-95
2023/03/16 06:23:59;;;;;;;7.57;3.67;;;4.50;99.40;;;;;;6260753;22;20064;-96
2023/03/16 06:26:29;;;;;;;7.43;4.15;;;4.50;99.40;;;;;;6296822;22;20336;-96
2023/03/16 06:28:56;;;;;;;8.02;4.10;;;4.50;99.30;;;;;;6272561;22;20034;-95
2023/03/16 06:31:22;;;;;;;7.07;3.50;;;4.60;99.30;;;;;;6300619;22;20099;-96
2023/03/16 06:33:48;;;;;;;8.38;3.70;;;4.60;99.30;;;;;;6269554;22;20046;-95
2023/03/16 06:36:14;;;;;;;8.55;4.07;;;4.50;99.20;;;;;;6291724;22;20019;-95
2023/03/16 06:38:39;;;;;;;10.70;4.18;;;4.50;99.20;;;;;;6262812;22;20022;-96
2023/03/16 06:41:05;;;;;;;6.55;3.55;;;4.60;99.30;;;;;;6262955;22;20012;-93
2023/03/16 06:43:31;;;;;;;10.55;4.18;;;4.50;99.40;;;;;;6277692;22;20483;-94
2023/03/16 06:45:57;;;;;;;10.55;3.83;;;4.50;99.30;;;;;;6278093;22;20074;-94
2023/03/16 06:48:23;;;;;;;8.07;4.00;;;4.50;99.30;;;;;;6251849;22;20012;-95
2023/03/16 06:50:49;;;;;;;10.38;3.58;;;4.50;99.20;;;;;;6277987;22;20373;-95
2023/03/16 06:53:14;;;;;;;9.30;3.97;;;4.60;99.20;;;;;;6277390;22;20016;-95
2023/03/16 06:55:40;;;;;;;7.88;3.60;;;4.60;99.30;;;;;;6254190;22;20066;-95
2023/03/16 06:58:06;;;;;;;9.68;4.10;;;4.60;99.30;;;;;;6282897;22;20018;-94
2023/03/16 07:00:32;;;;;;;7.82;3.78;;;4.60;99.30;;;;;;6286394;22;20088;-96
2023/03/16 07:02:59;;;;;;;9.98;3.78;;;4.60;99.30;;;;;;6256217;22;20027;-96
2023/03/16 07:05:25;;;;;;;10.32;3.90;;;4.60;99.20;;;;;;6281222;22;20014;-94
2023/03/16 07:07:50;;;;;;;8.23;3.80;;;4.60;99.20;;;;;;6280008;22;20047;-93
2023/03/16 07:10:17;;;;;;;7.57;3.85;;;4.60;99.20;;;;;;6254514;22;20351;-95
2023/03/16 07:12:43;;;;;;;8.30;3.70;;;4.60;99.20;;;;;;6281501;22;20336;-95
2023/03/16 07:15:10;;;;;;;7.78;3.80;;;4.70;99.10;;;;;;6252082;22;20056;-96
2023/03/16 07:17:36;;;;;;;7.65;3.45;;;4.60;98.80;;;;;;6283368;22;20027;-95
2023/03/16 07:20:04;;;;;;;7.28;3.42;;;4.70;98.80;;;;;;6253645;22;20086;-95
2023/03/16 07:22:31;;;;;;;7.22;3.25;;;4.60;98.70;;;;;;6254466;22;20024;-95
2023/03/16 07:24:57;;;;;;;7.68;3.65;;;4.70;98.60;;;;;;6256538;22;20012;-96
2023/03/16 07:27:24;;;;;;;7.85;3.58;;;4.70;98.50;;;;;;6284428;22;20020;-96
2023/03/16 07:29:53;;;;;;;8.38;3.55;;;4.70;98.50;;;;;;6280935;22;20094;-95
2023/03/16 07:32:18;;;;;;;10.00;3.88;;;4.70;98.70;;;;;;6254096;22;20012;-93
2023/03/16 07:34:44;;;;;;;9.20;3.53;;;4.70;98.80;;;;;;6282221;22;20027;-95
2023/03/16 07:37:10;;;;;;;6.78;3.63;;;4.70;98.70;;;;;;6279768;22;20082;-91
2023/03/16 07:39:37;;;;;;;10.80;3.78;;;4.80;98.70;;;;;;6279038;22;20008;-91
2023/03/16 07:42:03;;;;;;;7.10;3.55;;;4.80;98.60;;;;;;6279169;22;20027;-91
2023/03/16 07:44:32;;;;;;;7.05;3.40;;;4.80;98.50;;;;;;6251666;22;20012;-91
2023/03/16 07:46:57;;;;;;;7.90;3.63;;;4.80;98.40;;;;;;6252153;22;20348;-93
2023/03/16 07:49:23;;;;;;;8.00;3.65;;;4.80;98.40;;;;;;6250541;22;20019;-94
2023/03/16 07:51:49;;;;;;;8.57;3.85;;;4.90;98.60;;;;;;6255849;22;20016;-95
2023/03/16 07:54:14;;;;;;;7.18;3.47;;;4.90;98.40;;;;;;6283832;22;20016;-94
2023/03/16 07:56:40;;;;;;;7.40;3.60;;;4.90;98.40;;;;;;6260083;22;20024;-93
2023/03/16 07:59:06;;;;;;;7.60;3.50;;;4.90;98.80;;;;;;6260561;22;20448;-93
2023/03/16 08:01:33;;;;;;;7.57;3.55;;;5.00;98.40;;;;;;6285196;22;20080;-92
2023/03/16 08:04:00;;;;;;;7.68;3.67;;;5.00;98.40;;;;;;6286192;22;20023;-92
2023/03/16 08:06:27;;;;;;;9.30;3.60;;;5.00;98.50;;;;;;6259151;22;20016;-92
2023/03/16 08:08:53;;;;;;;7.93;3.50;;;5.00;98.50;;;;;;6260111;22;20026;-91
2023/03/16 08:11:22;;;;;;;9.40;4.00;;;5.00;98.60;;;;;;6259719;22;20012;-93
2023/03/16 08:13:56;;;;;;;6.57;3.58;;;5.00;98.90;;;;;;6281991;22;20390;-92
2023/03/16 08:16:23;;;;;;;7.25;3.45;;;5.00;98.60;;;;;;6284851;22;20019;-92
2023/03/16 08:18:50;;;;;;;9.15;3.72;;;5.10;99.00;;;;;;6285541;22;20023;-92
2023/03/16 08:21:17;;;;;;;8.95;4.10;;;5.10;98.70;;;;;;6284383;22;20015;-91
2023/03/16 08:23:47;;;;;;;7.80;3.85;;;5.10;98.80;;;;;;6281498;22;20015;-92
2023/03/16 08:26:16;;;;;;;7.75;3.78;;;5.10;98.80;;;;;;6281692;22;20019;-92
2023/03/16 08:28:44;;;;;;;8.95;3.83;;;5.10;98.90;;;;;;6279308;22;20012;-92
2023/03/16 08:31:11;;;;;;;9.68;3.97;;;5.10;99.00;;;;;;6279433;22;20063;-94
2023/03/16 08:33:37;;;;;;;8.18;4.20;;;5.10;99.10;;;;;;6281189;22;20020;-92
2023/03/16 08:36:08;;;;;;;7.00;3.88;;;5.20;99.20;;;;;;6285667;22;20016;-94
2023/03/16 08:38:34;;;;;;;6.50;3.85;;;5.20;99.20;;;;;;6287724;22;20011;-94
2023/03/16 08:41:00;;;;;;;9.77;4.00;;;5.20;99.30;;;;;;6289723;22;20455;-93
2023/03/16 08:43:26;;;;;;;8.93;4.10;;;5.20;99.40;;;;;;6291431;22;20086;-94
2023/03/16 08:45:52;;;;;;;8.18;4.00;;;5.20;99.40;;;;;;6289055;22;20020;-94
2023/03/16 08:48:22;;;;;;;7.57;4.03;;;5.20;99.40;;;;;;6291108;22;20012;-94
2023/03/16 08:50:47;;;;;;;7.30;4.00;;;5.20;99.50;;;;;;6287448;22;20018;-93
2023/03/16 08:53:14;;;;;;;8.80;4.07;;;5.20;99.60;;;;;;6284953;22;20071;-93
2023/03/16 08:55:40;;;;;;;8.18;4.05;;;5.20;99.60;;;;;;6287861;22;20015;-93
2023/03/16 08:58:07;;;;;;;10.93;3.90;;;5.20;99.80;;;;;;6286542;22;20012;-92
2023/03/16 09:00:34;;;;;;;11.40;4.43;;;5.20;99.90;;;;;;6290177;22;20027;-93
2023/03/16 09:03:01;;;;;;;8.95;4.65;;;5.20;99.90;;;;;;6279901;22;20012;-92
2023/03/16 09:05:27;;;;;;;9.10;4.13;;;5.20;99.90;;;;;;6286648;22;20019;-95
2023/03/16 09:08:11;;;;;;;7.82;4.25;;;5.30;99.90;;;;;;6280626;22;20016;-95
2023/03/16 09:10:37;;;;;;;9.40;4.30;;;5.30;99.90;;;;;;6280704;22;20007;-95
2023/03/16 09:13:04;;;;;;;7.32;3.67;;;5.30;99.90;;;;;;6279954;22;20023;-94
2023/03/16 09:15:39;;;;;;;9.27;3.95;;;5.30;99.90;;;;;;6278882;22;20179;-96
2023/03/16 09:18:07;;;;;;;11.82;4.60;;;5.30;99.90;;;;;;6280894;22;20440;-94
2023/03/16 09:20:34;;;;;;;9.20;3.88;;;5.30;99.90;;;;;;6279510;22;20014;-96
2023/03/16 09:23:03;;;;;;;9.02;4.53;;;5.30;99.90;;;;;;6279526;22;20436;-95
2023/03/16 09:25:29;;;;;;;8.52;4.28;;;5.30;99.90;;;;;;6277372;22;20022;-96
2023/03/16 09:27:55;;;;;;;8.93;4.57;;;5.20;99.90;;;;;;6274859;22;20015;-95
2023/03/16 09:30:20;;;;;;;8.80;4.78;;;5.30;99.90;;;;;;6279869;22;20340;-96
2023/03/16 09:32:47;;;;;;;10.50;4.70;;;5.30;99.90;;;;;;6288223;22;20004;-96
2023/03/16 09:35:16;;;;;;;8.07;4.82;;;5.40;99.90;;;;;;6285307;22;20023;-96
2023/03/16 09:37:42;;;;;;;10.90;4.88;;;5.30;99.90;;;;;;6277572;22;20007;-94
2023/03/16 09:40:20;;;;;;;10.25;4.80;;;5.30;99.90;;;;;;6283743;22;20020;-94
2023/03/16 09:43:20;;;;;;;11.10;4.88;;;5.40;99.90;;;;;;6292781;22;20022;-96
2023/03/16 09:46:10;;;;;;;9.07;5.05;;;5.40;99.90;;;;;;6210410;22;20015;-95
2023/03/16 09:48:37;;;;;;;12.05;4.50;;;5.40;99.90;;;;;;6287745;22;20018;-96
2023/03/16 09:51:06;;;;;;;11.70;4.90;;;5.40;99.90;;;;;;6315355;22;20015;-96
2023/03/16 09:53:38;;;;;;;8.60;4.53;;;5.50;99.90;;;;;;6285886;22;20011;-94
2023/03/16 09:56:11;;;;;;;8.02;4.60;;;5.50;99.90;;;;;;6292588;22;20028;-94
2023/03/16 09:58:37;;;;;;;9.77;5.03;;;5.50;99.90;;;;;;6295738;22;20011;-95
2023/03/16 10:01:25;;;;;;;8.88;4.30;;;5.50;99.90;;;;;;6284770;22;20325;-95
2023/03/16 10:04:18;;;;;;;8.85;4.40;;;5.60;99.90;;;;;;6310958;22;20061;-94
2023/03/16 10:07:12;;;;;;;10.15;4.97;;;5.60;99.90;;;;;;6282559;22;20355;-94
2023/03/16 10:09:58;;;;;;;9.63;4.80;;;5.60;99.90;;;;;;6291624;22;20042;-96
2023/03/16 10:12:36;;;;;;;9.52;4.97;;;5.60;99.90;;;;;;6318102;22;20020;-94
2023/03/16 10:15:11;;;;;;;8.25;4.78;;;5.60;99.90;;;;;;6311195;22;20026;-94
2023/03/16 10:17:45;;;;;;;9.50;4.45;;;5.70;99.90;;;;;;6283268;22;20018;-94
2023/03/16 10:20:19;;;;;;;10.45;5.13;;;5.70;99.90;;;;;;6282846;22;20026;-95
2023/03/16 10:22:47;;;;;;;10.90;5.65;;;5.70;99.90;;;;;;6310336;22;20370;-95
2023/03/16 10:25:26;;;;;;;9.63;4.40;;;5.70;99.90;;;;;;6312217;22;20085;-95
2023/03/16 10:27:52;;;;;;;11.10;4.60;;;5.70;99.90;;;;;;6286727;22;20015;-94
2023/03/16 10:30:30;;;;;;;7.85;4.45;;;5.80;99.90;;;;;;6284234;22;20352;-94
2023/03/16 10:33:17;;;;;;;11.07;5.18;;;5.80;99.90;;;;;;6285799;22;20338;-95
2023/03/16 10:35:47;;;;;;;8.60;4.53;;;5.80;99.90;;;;;;6314813;22;20022;-95
2023/03/16 10:38:38;;;;;;;10.43;4.97;;;5.90;99.90;;;;;;6286287;22;20015;-95
2023/03/16 10:41:19;;;;;;;10.60;5.20;;;5.90;99.90;;;;;;6286491;22;20057;-94
2023/03/16 10:43:50;;;;;;;8.70;4.68;;;5.90;99.90;;;;;;6259483;22;20051;-93
2023/03/16 10:46:17;;;;;;;9.18;5.03;;;5.90;99.90;;;;;;6313526;22;20019;-95
2023/03/16 10:48:52;;;;;;;8.18;5.10;;;5.90;99.90;;;;;;6313169;22;20044;-94
2023/03/16 10:51:24;;;;;;;7.28;4.63;;;5.90;99.90;;;;;;6283506;22;20022;-94
2023/03/16 10:53:51;;;;;;;10.15;4.70;;;5.90;99.90;;;;;;6311903;22;20015;-95
2023/03/16 10:56:27;;;;;;;7.78;4.72;;;6.00;99.90;;;;;;6290996;22;20021;-95
2023/03/16 10:58:59;;;;;;;8.70;4.53;;;6.00;99.90;;;;;;6325424;22;20034;-95
2023/03/16 11:01:30;;;;;;;7.60;4.47;;;6.00;99.90;;;;;;6328287;22;20011;-95
2023/03/16 11:04:01;;;;;;;9.15;4.57;;;6.00;99.90;;;;;;6330254;22;20078;-96
2023/03/16 11:06:30;;;;;;;10.40;4.72;;;6.10;99.90;;;;;;6327420;22;20042;-96
2023/03/16 11:09:19;;;;;;;9.35;4.45;;;6.10;99.90;;;;;;6327883;22;20019;-94
2023/03/16 11:11:51;;;;;;;8.38;4.55;;;6.20;99.90;;;;;;6326860;22;20022;-94
2023/03/16 11:14:21;;;;;;;12.80;4.80;;;6.20;99.90;;;;;;6323183;22;20066;-94
2023/03/16 11:17:00;;;;;;;9.52;4.40;;;6.30;99.90;;;;;;6287126;22;20383;-95
2023/03/16 11:19:59;;;;;;;8.60;4.30;;;6.20;99.90;;;;;;6283705;22;20041;-93
2023/03/16 11:22:26;;;;;;;11.93;4.30;;;6.30;99.90;;;;;;6280313;22;20497;-94
2023/03/16 11:25:14;;;;;;;9.00;4.50;;;6.30;99.90;;;;;;6313149;22;20070;-94
2023/03/16 11:28:16;;;;;;;8.27;4.22;;;6.30;99.90;;;;;;6283425;22;20026;-94
2023/03/16 11:30:53;;;;;;;9.05;4.30;;;6.40;99.90;;;;;;6282303;22;20506;-94
2023/03/16 11:33:21;;;;;;;11.85;4.40;;;6.40;99.90;;;;;;6284476;22;20022;-94
2023/03/16 11:35:57;;;;;;;7.88;4.32;;;6.40;99.90;;;;;;6314330;22;20094;-96
2023/03/16 11:38:39;;;;;;;8.48;4.22;;;6.50;99.90;;;;;;6285029;22;20015;-95
2023/03/16 11:41:10;;;;;;;7.97;4.47;;;6.50;99.90;;;;;;6311106;22;20097;-95
2023/03/16 11:43:51;;;;;;;7.43;4.13;;;6.50;99.90;;;;;;6283217;22;20011;-95
2023/03/16 11:46:25;;;;;;;9.75;4.10;;;6.50;99.90;;;;;;6283487;22;20019;-96
2023/03/16 11:49:22;;;;;;;9.88;4.00;;;6.60;99.90;;;;;;6310514;22;20015;-94
2023/03/16 11:52:14;;;;;;;7.55;3.70;;;6.60;99.90;;;;;;6283432;22;20361;-95
2023/03/16 11:54:58;;;;;;;11.75;3.90;;;6.70;99.90;;;;;;6311016;22;20015;-95
2023/03/16 11:57:43;;;;;;;7.07;4.05;;;6.70;99.90;;;;;;6283340;22;20019;-95
2023/03/16 12:00:47;;;;;;;7.75;3.83;;;6.80;99.90;;;;;;6283142;22;20022;-96
2023/03/16 12:03:38;;;;;;;9.20;3.80;;;6.80;99.90;;;;;;6282947;22;20463;-96
2023/03/16 12:06:07;;;;;;;8.73;4.03;;;6.90;99.90;;;;;;6283928;22;20050;-95
2023/03/16 12:09:12;;;;;;;8.70;3.30;;;6.90;99.90;;;;;;6282428;22;20015;-95
2023/03/16 12:11:45;;;;;;;6.65;3.92;;;7.00;99.90;;;;;;6311015;22;20015;-96
2023/03/16 12:14:19;;;;;;;;;;;7.10;99.90;;;;;;6283458;22;20030;-92
2023/03/16 12:17:14;;;;;;;6.72;3.25;;;7.10;99.90;;;;;;6283198;22;19922;-92
2023/03/16 12:20:00;;;;;;;8.73;3.53;;;7.10;99.90;;;;;;6285862;22;20046;-93
2023/03/16 12:22:28;;;;;;;6.82;3.45;;;7.30;99.90;;;;;;6284732;22;20090;-93
2023/03/16 12:24:53;;;;;;;7.07;3.35;;;7.30;99.90;;;;;;6313790;22;20020;-95
2023/03/16 12:27:25;;;;;;;7.45;3.50;;;7.40;99.90;;;;;;6284542;22;20050;-93
2023/03/16 12:30:00;;;;;;;7.50;3.63;;;7.40;99.90;;;;;;6284720;22;20334;-94
2023/03/16 12:32:37;;;;;;;8.48;3.78;;;7.50;99.90;;;;;;6313140;22;20023;-93
2023/03/16 12:35:20;;;;;;;6.80;3.05;;;7.50;99.90;;;;;;6286394;22;20015;-94
2023/03/16 12:38:16;;;;;;;6.63;3.08;;;7.60;99.90;;;;;;6313077;22;20015;-94
2023/03/16 12:41:10;;;;;;;7.30;3.53;;;7.60;99.60;;;;;;6284904;22;20016;-93
2023/03/16 12:43:41;;;;;;;7.75;3.47;;;7.70;99.40;;;;;;6284184;22;20019;-92
2023/03/16 12:46:18;;;;;;;7.28;3.45;;;7.70;99.40;;;;;;6311430;22;20508;-93
2023/03/16 12:48:59;;;;;;;7.50;3.83;;;7.70;99.30;;;;;;6312781;22;20077;-93
2023/03/16 12:51:40;;;;;;;6.28;3.17;;;7.80;99.20;;;;;;6282900;22;20015;-94
2023/03/16 12:54:20;;;;;;;6.97;2.90;;;7.80;99.10;;;;;;6311459;22;20019;-95
2023/03/16 12:56:48;;;;;;;7.10;3.22;;;7.90;98.90;;;;;;6285187;22;20474;-94
2023/03/16 12:59:19;;;;;;;7.65;3.05;;;7.90;98.90;;;;;;6284330;22;20027;-95
2023/03/16 13:01:50;;;;;;;8.20;3.17;;;7.90;98.70;;;;;;6284888;22;20026;-96
2023/03/16 13:04:19;;;;;;;7.05;2.83;;;7.90;98.60;;;;;;6308123;22;20015;-95
2023/03/16 13:06:49;;;;;;;6.28;3.10;;;7.90;98.60;;;;;;6281480;22;20447;-93
2023/03/16 13:09:27;;;;;;;5.53;2.80;;;8.00;98.70;;;;;;6281752;22;20078;-95
2023/03/16 13:11:52;;;;;;;9.27;3.50;;;8.00;98.60;;;;;;6286551;22;20016;-95
2023/03/16 13:14:53;;;;;;;7.40;3.22;;;8.00;98.70;;;;;;6287619;22;20094;-95
2023/03/16 13:17:19;;;;;;;7.20;3.20;;;8.00;98.40;;;;;;6256393;22;20015;-93